sensor_id;sensor_type;location;lat;lon;timestamp;pressure;altitude;pressure_sealevel;temperature;humidity
36190;BME280;22232;50.914;13.858;2024-01-30T00:00:00;99209.63;;;3.76;86.77
36190;BME280;22232;50.914;13.858;2024-01-30T00:02:31;99210.63;;;3.75;85.87
36190;BME280;22232;50.914;13.858;2024-01-30T00:04:59;99200.88;;;3.76;86.27
36190;BME280;22232;50.914;13.858;2024-01-30T00:07:26;99206.91;;;3.68;86.90
36190;BME280;22232;50.914;13.858;2024-01-30T00:09:54;99215.69;;;3.68;86.95
36190;BME280;22232;50.914;13.858;2024-01-30T00:12:22;99210.94;;;3.72;86.98
36190;BME280;22232;50.914;13.858;2024-01-30T00:14:49;99212.06;;;3.70;87.25
36190;BME280;22232;50.914;13.858;2024-01-30T00:17:21;99208.91;;;3.66;87.71
36190;BME280;22232;50.914;13.858;2024-01-30T00:19:49;99208.50;;;3.61;88.48
36190;BME280;22232;50.914;13.858;2024-01-30T00:22:16;99217.84;;;3.55;89.25
36190;BME280;22232;50.914;13.858;2024-01-30T00:24:44;99214.09;;;3.58;89.30
36190;BME280;22232;50.914;13.858;2024-01-30T00:27:11;99213.56;;;3.54;89.63
36190;BME280;22232;50.914;13.858;2024-01-30T00:29:39;99206.25;;;3.48;90.37
36190;BME280;22232;50.914;13.858;2024-01-30T00:32:07;99208.38;;;3.44;91.11
36190;BME280;22232;50.914;13.858;2024-01-30T00:34:34;99211.97;;;3.43;91.35
36190;BME280;22232;50.914;13.858;2024-01-30T00:37:02;99215.38;;;3.36;91.87
36190;BME280;22232;50.914;13.858;2024-01-30T00:39:29;99211.22;;;3.33;92.53
36190;BME280;22232;50.914;13.858;2024-01-30T00:41:57;99204.81;;;3.36;93.22
36190;BME280;22232;50.914;13.858;2024-01-30T00:44:24;99207.25;;;3.29;93.38
36190;BME280;22232;50.914;13.858;2024-01-30T00:46:52;99207.59;;;3.34;93.33
36190;BME280;22232;50.914;13.858;2024-01-30T00:49:20;99208.50;;;3.25;93.86
36190;BME280;22232;50.914;13.858;2024-01-30T00:51:47;99202.91;;;3.28;93.94
36190;BME280;22232;50.914;13.858;2024-01-30T00:54:15;99195.56;;;3.32;93.93
36190;BME280;22232;50.914;13.858;2024-01-30T00:56:42;99197.94;;;3.25;94.24
36190;BME280;22232;50.914;13.858;2024-01-30T00:59:11;99198.84;;;3.16;95.54
36190;BME280;22232;50.914;13.858;2024-01-30T01:01:38;99209.25;;;3.17;95.97
36190;BME280;22232;50.914;13.858;2024-01-30T01:04:06;99207.28;;;3.19;94.84
36190;BME280;22232;50.914;13.858;2024-01-30T01:06:34;99213.25;;;3.21;95.55
36190;BME280;22232;50.914;13.858;2024-01-30T01:09:02;99211.38;;;3.14;96.11
36190;BME280;22232;50.914;13.858;2024-01-30T01:11:31;99216.63;;;3.14;96.47
36190;BME280;22232;50.914;13.858;2024-01-30T01:13:59;99218.28;;;3.15;96.18
36190;BME280;22232;50.914;13.858;2024-01-30T01:16:26;99217.91;;;3.10;97.22
36190;BME280;22232;50.914;13.858;2024-01-30T01:18:54;99220.16;;;3.05;97.17
36190;BME280;22232;50.914;13.858;2024-01-30T01:21:22;99220.47;;;3.02;97.69
36190;BME280;22232;50.914;13.858;2024-01-30T01:23:50;99215.31;;;3.00;97.61
36190;BME280;22232;50.914;13.858;2024-01-30T01:26:18;99210.50;;;2.95;98.20
36190;BME280;22232;50.914;13.858;2024-01-30T01:28:46;99218.41;;;2.95;99.00
36190;BME280;22232;50.914;13.858;2024-01-30T01:31:13;99219.38;;;2.94;98.46
36190;BME280;22232;50.914;13.858;2024-01-30T01:33:41;99212.59;;;2.92;97.40
36190;BME280;22232;50.914;13.858;2024-01-30T01:36:09;99204.25;;;2.96;96.73
36190;BME280;22232;50.914;13.858;2024-01-30T01:38:36;99197.16;;;2.97;97.26
36190;BME280;22232;50.914;13.858;2024-01-30T01:41:04;99195.66;;;2.94;96.53
36190;BME280;22232;50.914;13.858;2024-01-30T01:43:32;99202.16;;;3.00;97.56
36190;BME280;22232;50.914;13.858;2024-01-30T01:45:59;99205.47;;;3.02;96.28
36190;BME280;22232;50.914;13.858;2024-01-30T01:48:27;99202.16;;;3.00;96.58
36190;BME280;22232;50.914;13.858;2024-01-30T01:50:55;99202.66;;;3.04;95.90
36190;BME280;22232;50.914;13.858;2024-01-30T01:53:23;99195.16;;;3.09;94.84
36190;BME280;22232;50.914;13.858;2024-01-30T01:55:51;99197.09;;;3.07;94.84
36190;BME280;22232;50.914;13.858;2024-01-30T01:58:21;99197.25;;;3.05;94.92
36190;BME280;22232;50.914;13.858;2024-01-30T02:00:50;99206.00;;;3.06;94.91
36190;BME280;22232;50.914;13.858;2024-01-30T02:03:18;99199.91;;;3.05;94.57
36190;BME280;22232;50.914;13.858;2024-01-30T02:05:50;99200.03;;;3.04;94.43
36190;BME280;22232;50.914;13.858;2024-01-30T02:08:18;99192.94;;;3.04;93.74
36190;BME280;22232;50.914;13.858;2024-01-30T02:10:45;99183.09;;;3.06;93.12
36190;BME280;22232;50.914;13.858;2024-01-30T02:13:13;99192.53;;;3.09;93.26
36190;BME280;22232;50.914;13.858;2024-01-30T02:15:41;99182.97;;;3.08;92.56
36190;BME280;22232;50.914;13.858;2024-01-30T02:18:09;99179.63;;;3.06;92.55
36190;BME280;22232;50.914;13.858;2024-01-30T02:20:37;99186.56;;;3.07;92.71
36190;BME280;22232;50.914;13.858;2024-01-30T02:23:07;99179.34;;;3.09;92.64
36190;BME280;22232;50.914;13.858;2024-01-30T02:25:40;99184.44;;;3.10;91.58
36190;BME280;22232;50.914;13.858;2024-01-30T02:28:14;99183.91;;;3.07;91.55
36190;BME280;22232;50.914;13.858;2024-01-30T02:30:45;99187.66;;;3.14;90.77
36190;BME280;22232;50.914;13.858;2024-01-30T02:33:13;99186.78;;;3.13;91.14
36190;BME280;22232;50.914;13.858;2024-01-30T02:35:41;99187.34;;;3.17;90.01
36190;BME280;22232;50.914;13.858;2024-01-30T02:38:08;99185.81;;;3.14;91.07
36190;BME280;22232;50.914;13.858;2024-01-30T02:40:36;99185.97;;;3.13;89.90
36190;BME280;22232;50.914;13.858;2024-01-30T02:43:04;99181.50;;;3.13;90.63
36190;BME280;22232;50.914;13.858;2024-01-30T02:45:32;99176.09;;;3.15;89.91
36190;BME280;22232;50.914;13.858;2024-01-30T02:48:00;99178.28;;;3.19;89.84
36190;BME280;22232;50.914;13.858;2024-01-30T02:50:27;99176.25;;;3.13;90.61
36190;BME280;22232;50.914;13.858;2024-01-30T02:52:55;99169.84;;;3.16;90.33
36190;BME280;22232;50.914;13.858;2024-01-30T02:55:22;99175.66;;;3.19;89.87
36190;BME280;22232;50.914;13.858;2024-01-30T02:57:50;99175.50;;;3.21;89.11
36190;BME280;22232;50.914;13.858;2024-01-30T03:00:19;99176.50;;;3.20;89.38
36190;BME280;22232;50.914;13.858;2024-01-30T03:02:47;99167.72;;;3.19;88.34
36190;BME280;22232;50.914;13.858;2024-01-30T03:05:14;99166.25;;;3.17;88.52
36190;BME280;22232;50.914;13.858;2024-01-30T03:07:42;99173.25;;;3.26;88.06
36190;BME280;22232;50.914;13.858;2024-01-30T03:10:09;99164.66;;;3.24;88.00
36190;BME280;22232;50.914;13.858;2024-01-30T03:12:37;99166.47;;;3.24;87.94
36190;BME280;22232;50.914;13.858;2024-01-30T03:15:05;99167.13;;;3.26;88.47
36190;BME280;22232;50.914;13.858;2024-01-30T03:17:32;99164.50;;;3.26;88.22
36190;BME280;22232;50.914;13.858;2024-01-30T03:20:00;99166.88;;;3.29;88.86
36190;BME280;22232;50.914;13.858;2024-01-30T03:22:28;99157.78;;;3.31;88.95
36190;BME280;22232;50.914;13.858;2024-01-30T03:24:56;99153.22;;;3.33;88.43
36190;BME280;22232;50.914;13.858;2024-01-30T03:27:23;99157.06;;;3.39;88.42
36190;BME280;22232;50.914;13.858;2024-01-30T03:29:51;99156.88;;;3.40;87.69
36190;BME280;22232;50.914;13.858;2024-01-30T03:32:19;99151.09;;;3.37;88.07
36190;BME280;22232;50.914;13.858;2024-01-30T03:34:46;99152.78;;;3.38;88.76
36190;BME280;22232;50.914;13.858;2024-01-30T03:37:14;99152.59;;;3.39;88.57
36190;BME280;22232;50.914;13.858;2024-01-30T03:39:42;99159.09;;;3.45;88.38
36190;BME280;22232;50.914;13.858;2024-01-30T03:42:09;99156.97;;;3.49;88.44
36190;BME280;22232;50.914;13.858;2024-01-30T03:44:37;99155.16;;;3.49;88.38
36190;BME280;22232;50.914;13.858;2024-01-30T03:47:04;99156.28;;;3.47;88.52
36190;BME280;22232;50.914;13.858;2024-01-30T03:49:32;99157.97;;;3.48;88.51
36190;BME280;22232;50.914;13.858;2024-01-30T03:52:00;99150.19;;;3.46;88.92
36190;BME280;22232;50.914;13.858;2024-01-30T03:54:27;99155.84;;;3.51;88.67
36190;BME280;22232;50.914;13.858;2024-01-30T03:56:55;99158.09;;;3.46;88.92
36190;BME280;22232;50.914;13.858;2024-01-30T03:59:22;99161.56;;;3.47;89.19
36190;BME280;22232;50.914;13.858;2024-01-30T04:01:51;99163.69;;;3.43;88.93
36190;BME280;22232;50.914;13.858;2024-01-30T04:04:19;99153.28;;;3.41;89.70
36190;BME280;22232;50.914;13.858;2024-01-30T04:06:47;99152.78;;;3.38;90.03
36190;BME280;22232;50.914;13.858;2024-01-30T04:09:15;99154.19;;;3.32;90.23
36190;BME280;22232;50.914;13.858;2024-01-30T04:11:43;99154.19;;;3.14;91.85
36190;BME280;22232;50.914;13.858;2024-01-30T04:14:10;99155.16;;;3.13;94.06
36190;BME280;22232;50.914;13.858;2024-01-30T04:16:38;99152.47;;;3.05;94.26
36190;BME280;22232;50.914;13.858;2024-01-30T04:19:05;99155.09;;;3.05;93.47
36190;BME280;22232;50.914;13.858;2024-01-30T04:21:33;99153.97;;;3.08;93.50
36190;BME280;22232;50.914;13.858;2024-01-30T04:24:01;99153.50;;;3.12;93.98
36190;BME280;22232;50.914;13.858;2024-01-30T04:26:28;99144.00;;;3.19;92.14
36190;BME280;22232;50.914;13.858;2024-01-30T04:28:56;99153.06;;;3.17;91.86
36190;BME280;22232;50.914;13.858;2024-01-30T04:31:23;99151.47;;;3.24;91.61
36190;BME280;22232;50.914;13.858;2024-01-30T04:33:51;99156.38;;;3.19;91.53
36190;BME280;22232;50.914;13.858;2024-01-30T04:36:19;99154.50;;;3.11;92.57
36190;BME280;22232;50.914;13.858;2024-01-30T04:38:46;99160.88;;;3.09;93.07
36190;BME280;22232;50.914;13.858;2024-01-30T04:41:14;99148.53;;;3.09;93.30
36190;BME280;22232;50.914;13.858;2024-01-30T04:43:41;99156.59;;;3.08;93.18
36190;BME280;22232;50.914;13.858;2024-01-30T04:46:09;99144.91;;;3.10;92.88
36190;BME280;22232;50.914;13.858;2024-01-30T04:48:37;99153.81;;;3.09;93.17
36190;BME280;22232;50.914;13.858;2024-01-30T04:51:04;99152.91;;;3.18;92.48
36190;BME280;22232;50.914;13.858;2024-01-30T04:53:32;99151.56;;;3.14;92.34
36190;BME280;22232;50.914;13.858;2024-01-30T04:55:59;99151.34;;;3.08;92.42
36190;BME280;22232;50.914;13.858;2024-01-30T04:58:27;99155.69;;;2.99;94.53
36190;BME280;22232;50.914;13.858;2024-01-30T05:00:54;99157.09;;;2.93;95.23
36190;BME280;22232;50.914;13.858;2024-01-30T05:03:23;99153.72;;;2.83;95.41
36190;BME280;22232;50.914;13.858;2024-01-30T05:05:51;99148.78;;;2.70;96.78
36190;BME280;22232;50.914;13.858;2024-01-30T05:08:19;99156.31;;;2.65;98.89
36190;BME280;22232;50.914;13.858;2024-01-30T05:10:46;99155.66;;;2.53;99.38
36190;BME280;22232;50.914;13.858;2024-01-30T05:13:14;99150.81;;;2.49;100.00
36190;BME280;22232;50.914;13.858;2024-01-30T05:15:42;99160.44;;;2.40;100.00
36190;BME280;22232;50.914;13.858;2024-01-30T05:18:09;99160.47;;;2.30;100.00
36190;BME280;22232;50.914;13.858;2024-01-30T05:20:37;99156.06;;;2.21;100.00
36190;BME280;22232;50.914;13.858;2024-01-30T05:23:05;99159.56;;;2.12;100.00
36190;BME280;22232;50.914;13.858;2024-01-30T05:25:32;99155.41;;;2.10;100.00
36190;BME280;22232;50.914;13.858;2024-01-30T05:28:00;99153.59;;;2.20;100.00
36190;BME280;22232;50.914;13.858;2024-01-30T05:30:28;99154.31;;;2.12;100.00
36190;BME280;22232;50.914;13.858;2024-01-30T05:32:55;99151.97;;;2.09;100.00
36190;BME280;22232;50.914;13.858;2024-01-30T05:35:23;99146.44;;;2.02;100.00
36190;BME280;22232;50.914;13.858;2024-01-30T05:37:50;99155.47;;;1.90;100.00
36190;BME280;22232;50.914;13.858;2024-01-30T05:40:18;99141.91;;;1.85;100.00
36190;BME280;22232;50.914;13.858;2024-01-30T05:42:46;99144.28;;;1.78;100.00
36190;BME280;22232;50.914;13.858;2024-01-30T05:45:13;99150.25;;;1.80;100.00
36190;BME280;22232;50.914;13.858;2024-01-30T05:47:41;99146.59;;;1.91;100.00
36190;BME280;22232;50.914;13.858;2024-01-30T05:50:08;99147.75;;;1.79;100.00
36190;BME280;22232;50.914;13.858;2024-01-30T05:52:36;99147.34;;;1.74;100.00
36190;BME280;22232;50.914;13.858;2024-01-30T05:55:04;99146.38;;;1.75;100.00
36190;BME280;22232;50.914;13.858;2024-01-30T05:57:32;99152.03;;;1.70;100.00
36190;BME280;22232;50.914;13.858;2024-01-30T05:59:59;99156.47;;;1.70;100.00
36190;BME280;22232;50.914;13.858;2024-01-30T06:02:27;99156.06;;;1.74;100.00
36190;BME280;22232;50.914;13.858;2024-01-30T06:04:54;99152.19;;;1.69;100.00
36190;BME280;22232;50.914;13.858;2024-01-30T06:07:22;99148.59;;;1.60;100.00
36190;BME280;22232;50.914;13.858;2024-01-30T06:09:50;99146.78;;;1.70;100.00
36190;BME280;22232;50.914;13.858;2024-01-30T06:12:17;99147.63;;;1.80;100.00
36190;BME280;22232;50.914;13.858;2024-01-30T06:14:45;99145.94;;;1.79;100.00
36190;BME280;22232;50.914;13.858;2024-01-30T06:17:14;99142.75;;;1.95;100.00
36190;BME280;22232;50.914;13.858;2024-01-30T06:19:41;99145.66;;;1.92;100.00
36190;BME280;22232;50.914;13.858;2024-01-30T06:22:09;99153.38;;;1.94;100.00
36190;BME280;22232;50.914;13.858;2024-01-30T06:24:36;99135.94;;;1.93;100.00
36190;BME280;22232;50.914;13.858;2024-01-30T06:27:04;99149.66;;;1.96;100.00
36190;BME280;22232;50.914;13.858;2024-01-30T06:29:32;99138.00;;;1.99;100.00
36190;BME280;22232;50.914;13.858;2024-01-30T06:31:59;99143.28;;;1.99;100.00
36190;BME280;22232;50.914;13.858;2024-01-30T06:34:27;99146.19;;;1.96;100.00
36190;BME280;22232;50.914;13.858;2024-01-30T06:36:54;99143.00;;;2.02;100.00
36190;BME280;22232;50.914;13.858;2024-01-30T06:39:22;99141.88;;;2.04;100.00
36190;BME280;22232;50.914;13.858;2024-01-30T06:41:51;99138.38;;;2.14;100.00
36190;BME280;22232;50.914;13.858;2024-01-30T06:44:18;99140.28;;;2.21;100.00
36190;BME280;22232;50.914;13.858;2024-01-30T06:46:46;99137.53;;;2.23;100.00
36190;BME280;22232;50.914;13.858;2024-01-30T06:49:13;99137.91;;;2.28;100.00
36190;BME280;22232;50.914;13.858;2024-01-30T06:51:41;99135.41;;;2.26;100.00
36190;BME280;22232;50.914;13.858;2024-01-30T06:54:08;99131.63;;;2.39;100.00
36190;BME280;22232;50.914;13.858;2024-01-30T06:56:36;99133.19;;;2.59;100.00
36190;BME280;22232;50.914;13.858;2024-01-30T06:59:04;99121.31;;;2.73;100.00
36190;BME280;22232;50.914;13.858;2024-01-30T07:01:32;99124.66;;;2.93;100.00
36190;BME280;22232;50.914;13.858;2024-01-30T07:04:00;99124.13;;;3.07;98.44
36190;BME280;22232;50.914;13.858;2024-01-30T07:06:28;99121.13;;;3.20;97.74
36190;BME280;22232;50.914;13.858;2024-01-30T07:08:55;99125.81;;;3.26;96.51
36190;BME280;22232;50.914;13.858;2024-01-30T07:11:23;99132.09;;;3.51;94.93
36190;BME280;22232;50.914;13.858;2024-01-30T07:13:51;99136.72;;;3.75;92.59
36190;BME280;22232;50.914;13.858;2024-01-30T07:16:19;99128.66;;;3.77;91.07
36190;BME280;22232;50.914;13.858;2024-01-30T07:18:47;99129.22;;;3.88;89.95
36190;BME280;22232;50.914;13.858;2024-01-30T07:21:14;99128.81;;;4.01;88.63
36190;BME280;22232;50.914;13.858;2024-01-30T07:23:42;99126.69;;;4.05;87.89
36190;BME280;22232;50.914;13.858;2024-01-30T07:26:10;99129.63;;;4.28;86.54
36190;BME280;22232;50.914;13.858;2024-01-30T07:28:38;99129.94;;;4.25;86.76
36190;BME280;22232;50.914;13.858;2024-01-30T07:31:06;99136.84;;;4.26;86.73
36190;BME280;22232;50.914;13.858;2024-01-30T07:36:55;99136.59;;;4.37;84.90
36190;BME280;22232;50.914;13.858;2024-01-30T07:39:22;99144.00;;;4.33;84.27
36190;BME280;22232;50.914;13.858;2024-01-30T07:41:50;99144.69;;;4.44;83.83
36190;BME280;22232;50.914;13.858;2024-01-30T07:44:17;99141.97;;;4.62;82.81
36190;BME280;22232;50.914;13.858;2024-01-30T07:46:45;99141.84;;;4.71;80.96
36190;BME280;22232;50.914;13.858;2024-01-30T07:49:12;99144.44;;;5.05;79.25
36190;BME280;22232;50.914;13.858;2024-01-30T07:51:43;99149.59;;;5.23;77.20
36190;BME280;22232;50.914;13.858;2024-01-30T07:54:12;99143.94;;;5.18;77.91
36190;BME280;22232;50.914;13.858;2024-01-30T07:56:40;99150.91;;;5.52;74.55
36190;BME280;22232;50.914;13.858;2024-01-30T07:59:11;99143.78;;;5.52;74.18
36190;BME280;22232;50.914;13.858;2024-01-30T08:01:39;99140.81;;;5.39;73.61
36190;BME280;22232;50.914;13.858;2024-01-30T08:04:06;99156.84;;;5.38;74.05
36190;BME280;22232;50.914;13.858;2024-01-30T08:06:34;99154.72;;;5.33;73.94
36190;BME280;22232;50.914;13.858;2024-01-30T08:09:02;99153.25;;;5.63;74.20
36190;BME280;22232;50.914;13.858;2024-01-30T08:11:29;99148.44;;;5.67;72.72
36190;BME280;22232;50.914;13.858;2024-01-30T08:13:58;99155.38;;;5.51;73.11
36190;BME280;22232;50.914;13.858;2024-01-30T08:16:25;99146.59;;;5.67;73.07
36190;BME280;22232;50.914;13.858;2024-01-30T08:18:53;99148.59;;;5.82;72.96
36190;BME280;22232;50.914;13.858;2024-01-30T08:21:23;99149.09;;;5.61;72.22
36190;BME280;22232;50.914;13.858;2024-01-30T08:23:51;99145.94;;;5.49;72.00
36190;BME280;22232;50.914;13.858;2024-01-30T08:26:19;99141.97;;;5.69;71.77
36190;BME280;22232;50.914;13.858;2024-01-30T08:28:46;99148.09;;;5.70;72.62
36190;BME280;22232;50.914;13.858;2024-01-30T08:31:14;99147.25;;;5.86;71.79
36190;BME280;22232;50.914;13.858;2024-01-30T08:33:42;99138.34;;;5.95;70.30
36190;BME280;22232;50.914;13.858;2024-01-30T08:36:12;99143.47;;;5.96;69.58
36190;BME280;22232;50.914;13.858;2024-01-30T08:38:39;99143.28;;;6.06;70.17
36190;BME280;22232;50.914;13.858;2024-01-30T08:41:07;99136.97;;;6.07;70.21
36190;BME280;22232;50.914;13.858;2024-01-30T08:43:35;99149.06;;;6.18;68.53
36190;BME280;22232;50.914;13.858;2024-01-30T08:46:03;99148.69;;;6.29;68.08
36190;BME280;22232;50.914;13.858;2024-01-30T08:48:31;99147.44;;;6.48;66.74
36190;BME280;22232;50.914;13.858;2024-01-30T08:50:59;99140.84;;;6.44;66.86
36190;BME280;22232;50.914;13.858;2024-01-30T08:53:26;99143.97;;;6.48;67.05
36190;BME280;22232;50.914;13.858;2024-01-30T08:55:54;99137.44;;;6.27;66.73
36190;BME280;22232;50.914;13.858;2024-01-30T08:58:22;99146.00;;;6.46;67.07
36190;BME280;22232;50.914;13.858;2024-01-30T09:00:49;99147.88;;;6.68;67.51
36190;BME280;22232;50.914;13.858;2024-01-30T09:03:19;99150.94;;;6.49;66.38
36190;BME280;22232;50.914;13.858;2024-01-30T09:05:46;99143.72;;;6.74;66.98
36190;BME280;22232;50.914;13.858;2024-01-30T09:08:14;99140.03;;;6.83;67.99
36190;BME280;22232;50.914;13.858;2024-01-30T09:10:42;99145.34;;;7.06;68.87
36190;BME280;22232;50.914;13.858;2024-01-30T09:13:09;99146.00;;;7.08;67.05
36190;BME280;22232;50.914;13.858;2024-01-30T09:15:38;99146.97;;;6.84;66.97
36190;BME280;22232;50.914;13.858;2024-01-30T09:18:06;99142.25;;;6.63;65.59
36190;BME280;22232;50.914;13.858;2024-01-30T09:20:34;99148.22;;;6.65;66.87
36190;BME280;22232;50.914;13.858;2024-01-30T09:23:01;99157.69;;;6.59;66.21
36190;BME280;22232;50.914;13.858;2024-01-30T09:25:29;99158.81;;;6.65;65.98
36190;BME280;22232;50.914;13.858;2024-01-30T09:27:57;99155.09;;;6.43;65.94
36190;BME280;22232;50.914;13.858;2024-01-30T09:30:24;99146.00;;;6.37;66.91
36190;BME280;22232;50.914;13.858;2024-01-30T09:32:52;99150.56;;;6.12;67.71
36190;BME280;22232;50.914;13.858;2024-01-30T09:35:19;99145.56;;;6.17;68.06
36190;BME280;22232;50.914;13.858;2024-01-30T09:37:47;99150.56;;;6.12;67.58
36190;BME280;22232;50.914;13.858;2024-01-30T09:40:15;99163.28;;;5.92;68.86
36190;BME280;22232;50.914;13.858;2024-01-30T09:42:47;99170.94;;;6.04;69.02
36190;BME280;22232;50.914;13.858;2024-01-30T09:45:18;99174.59;;;5.94;69.45
36190;BME280;22232;50.914;13.858;2024-01-30T09:47:49;99160.81;;;6.07;69.70
36190;BME280;22232;50.914;13.858;2024-01-30T09:50:17;99163.13;;;6.18;70.20
36190;BME280;22232;50.914;13.858;2024-01-30T09:52:46;99152.88;;;6.15;69.26
36190;BME280;22232;50.914;13.858;2024-01-30T09:55:14;99161.97;;;6.13;69.40
36190;BME280;22232;50.914;13.858;2024-01-30T09:57:42;99173.03;;;6.25;70.05
36190;BME280;22232;50.914;13.858;2024-01-30T10:00:10;99173.84;;;6.33;69.29
36190;BME280;22232;50.914;13.858;2024-01-30T10:02:40;99170.59;;;6.62;68.68
36190;BME280;22232;50.914;13.858;2024-01-30T10:05:08;99171.59;;;6.70;67.88
36190;BME280;22232;50.914;13.858;2024-01-30T10:07:36;99159.63;;;6.74;67.48
36190;BME280;22232;50.914;13.858;2024-01-30T10:10:05;99161.94;;;7.08;67.83
36190;BME280;22232;50.914;13.858;2024-01-30T10:12:34;99158.63;;;7.06;66.81
36190;BME280;22232;50.914;13.858;2024-01-30T10:15:01;99164.53;;;7.16;67.41
36190;BME280;22232;50.914;13.858;2024-01-30T10:17:30;99156.28;;;7.11;65.84
36190;BME280;22232;50.914;13.858;2024-01-30T10:20:04;99153.03;;;7.24;66.58
36190;BME280;22232;50.914;13.858;2024-01-30T10:22:32;99154.84;;;7.00;66.12
36190;BME280;22232;50.914;13.858;2024-01-30T10:25:00;99145.66;;;7.11;66.52
36190;BME280;22232;50.914;13.858;2024-01-30T10:27:32;99143.59;;;6.98;65.82
36190;BME280;22232;50.914;13.858;2024-01-30T10:30:00;99143.53;;;7.29;65.74
36190;BME280;22232;50.914;13.858;2024-01-30T10:32:28;99142.22;;;7.02;66.43
36190;BME280;22232;50.914;13.858;2024-01-30T10:34:55;99134.59;;;6.76;66.05
36190;BME280;22232;50.914;13.858;2024-01-30T10:37:25;99134.94;;;7.04;67.90
36190;BME280;22232;50.914;13.858;2024-01-30T10:39:53;99129.41;;;6.83;68.20
36190;BME280;22232;50.914;13.858;2024-01-30T10:42:26;99130.38;;;6.51;69.63
36190;BME280;22232;50.914;13.858;2024-01-30T10:45:08;99135.22;;;6.39;70.32
36190;BME280;22232;50.914;13.858;2024-01-30T10:47:36;99123.44;;;6.50;70.15
36190;BME280;22232;50.914;13.858;2024-01-30T10:50:05;99127.13;;;6.40;69.74
36190;BME280;22232;50.914;13.858;2024-01-30T10:52:33;99120.59;;;6.51;71.03
36190;BME280;22232;50.914;13.858;2024-01-30T10:55:01;99120.13;;;6.48;71.11
36190;BME280;22232;50.914;13.858;2024-01-30T10:57:34;99113.63;;;6.58;70.80
36190;BME280;22232;50.914;13.858;2024-01-30T11:00:10;99109.59;;;6.71;68.91
36190;BME280;22232;50.914;13.858;2024-01-30T11:02:41;99111.31;;;6.55;71.76
36190;BME280;22232;50.914;13.858;2024-01-30T11:05:09;99104.88;;;6.81;70.73
36190;BME280;22232;50.914;13.858;2024-01-30T11:07:39;99097.72;;;6.89;70.20
36190;BME280;22232;50.914;13.858;2024-01-30T11:10:11;99093.22;;;6.90;69.26
36190;BME280;22232;50.914;13.858;2024-01-30T11:12:43;99076.09;;;7.01;69.72
36190;BME280;22232;50.914;13.858;2024-01-30T11:15:13;99078.84;;;6.84;69.33
36190;BME280;22232;50.914;13.858;2024-01-30T11:20:29;99066.97;;;7.03;69.60
36190;BME280;22232;50.914;13.858;2024-01-30T11:23:01;99061.88;;;7.17;67.38
36190;BME280;22232;50.914;13.858;2024-01-30T11:25:34;99056.34;;;7.03;67.09
36190;BME280;22232;50.914;13.858;2024-01-30T11:28:02;99066.25;;;7.09;66.83
36190;BME280;22232;50.914;13.858;2024-01-30T11:30:32;99069.25;;;7.29;66.08
36190;BME280;22232;50.914;13.858;2024-01-30T11:33:12;99068.09;;;7.47;65.14
36190;BME280;22232;50.914;13.858;2024-01-30T11:35:44;99073.72;;;7.81;63.65
36190;BME280;22232;50.914;13.858;2024-01-30T11:38:16;99053.69;;;7.94;63.46
36190;BME280;22232;50.914;13.858;2024-01-30T11:40:43;99055.88;;;8.05;62.39
36190;BME280;22232;50.914;13.858;2024-01-30T11:43:11;99053.88;;;7.92;61.27
36190;BME280;22232;50.914;13.858;2024-01-30T11:45:39;99045.69;;;7.79;61.60
36190;BME280;22232;50.914;13.858;2024-01-30T11:48:08;99051.75;;;7.73;62.28
36190;BME280;22232;50.914;13.858;2024-01-30T11:50:39;99052.69;;;7.80;62.59
36190;BME280;22232;50.914;13.858;2024-01-30T11:53:07;99049.75;;;7.75;62.66
36190;BME280;22232;50.914;13.858;2024-01-30T11:55:35;99052.97;;;7.70;62.22
36190;BME280;22232;50.914;13.858;2024-01-30T11:58:05;99054.28;;;7.13;62.39
36190;BME280;22232;50.914;13.858;2024-01-30T12:00:33;99049.13;;;7.12;63.88
36190;BME280;22232;50.914;13.858;2024-01-30T12:03:02;99053.97;;;7.08;64.65
36190;BME280;22232;50.914;13.858;2024-01-30T12:05:31;99048.63;;;6.94;64.58
36190;BME280;22232;50.914;13.858;2024-01-30T12:07:59;99044.06;;;7.02;65.65
36190;BME280;22232;50.914;13.858;2024-01-30T12:10:28;99039.00;;;6.93;64.83
36190;BME280;22232;50.914;13.858;2024-01-30T12:12:57;99044.56;;;6.83;65.14
36190;BME280;22232;50.914;13.858;2024-01-30T12:15:26;99033.19;;;6.43;65.65
36190;BME280;22232;50.914;13.858;2024-01-30T12:18:06;99029.19;;;6.47;66.42
36190;BME280;22232;50.914;13.858;2024-01-30T12:20:35;99030.94;;;6.32;67.38
36190;BME280;22232;50.914;13.858;2024-01-30T12:23:03;99036.19;;;6.09;66.91
36190;BME280;22232;50.914;13.858;2024-01-30T12:25:31;99029.53;;;6.13;68.32
36190;BME280;22232;50.914;13.858;2024-01-30T12:27:59;99040.19;;;6.36;67.19
36190;BME280;22232;50.914;13.858;2024-01-30T12:30:27;99040.84;;;6.38;66.92
36190;BME280;22232;50.914;13.858;2024-01-30T12:32:55;99043.09;;;6.49;68.38
36190;BME280;22232;50.914;13.858;2024-01-30T12:35:23;99038.31;;;6.44;69.61
36190;BME280;22232;50.914;13.858;2024-01-30T12:37:51;99027.00;;;6.51;68.89
36190;BME280;22232;50.914;13.858;2024-01-30T12:40:18;99012.88;;;6.66;67.63
36190;BME280;22232;50.914;13.858;2024-01-30T12:42:47;99018.16;;;6.66;66.70
36190;BME280;22232;50.914;13.858;2024-01-30T12:45:18;99028.63;;;6.60;65.76
36190;BME280;22232;50.914;13.858;2024-01-30T12:47:50;99020.84;;;6.81;64.50
36190;BME280;22232;50.914;13.858;2024-01-30T12:50:19;99019.97;;;6.66;65.10
36190;BME280;22232;50.914;13.858;2024-01-30T12:52:47;99022.75;;;6.73;65.85
36190;BME280;22232;50.914;13.858;2024-01-30T12:55:17;99013.44;;;6.77;65.61
36190;BME280;22232;50.914;13.858;2024-01-30T12:57:45;99015.25;;;6.99;65.85
36190;BME280;22232;50.914;13.858;2024-01-30T13:00:13;99019.97;;;6.89;66.57
36190;BME280;22232;50.914;13.858;2024-01-30T13:02:41;99014.84;;;6.87;66.33
36190;BME280;22232;50.914;13.858;2024-01-30T13:05:12;99022.28;;;6.92;66.22
36190;BME280;22232;50.914;13.858;2024-01-30T13:07:40;99012.38;;;6.86;68.07